Time;durP1;ratioP1;P1;durP2;ratioP2;P2;SDS_P1;SDS_P2;PMS_P1;PMS_P2;Temp;Humidity;BMP_temperature;BMP_pressure;BME280_temperature;BME280_humidity;BME280_pressure;Samples;Min_cycle;Max_cycle;Signal;HPM_P1;HPM_P2
2023/04/03 00:02:49;;;;;;;1.80;1.40;;;;;;;8.85;41.44;98744.59;8384297;28;20235;-71
2023/04/03 00:06:52;;;;;;;2.53;1.20;;;;;;;8.83;40.96;98746.38;8384157;28;20232;-70
2023/04/03 00:10:55;;;;;;;1.30;1.20;;;;;;;8.88;41.01;98739.38;8383952;28;20249;-70
2023/04/03 00:14:58;;;;;;;1.53;1.10;;;;;;;8.84;40.89;98742.06;8383769;28;20544;-71
2023/04/03 00:19:02;;;;;;;1.33;1.20;;;;;;;8.89;41.21;98740.19;8383365;28;20225;-69
2023/04/03 00:23:05;;;;;;;1.20;1.10;;;;;;;8.92;41.20;98742.72;8383379;28;20240;-70
2023/04/03 00:27:07;;;;;;;1.37;1.10;;;;;;;8.83;40.89;98738.63;8383265;28;20228;-70
2023/04/03 00:31:10;;;;;;;1.33;1.10;;;;;;;8.84;41.29;98736.91;8383134;28;20245;-71
2023/04/03 00:35:15;;;;;;;1.77;1.20;;;;;;;8.79;41.25;98729.25;8382829;28;20302;-70
2023/04/03 00:39:18;;;;;;;2.23;1.40;;;;;;;8.87;41.51;98745.44;8381869;28;20412;-70
2023/04/03 00:43:23;;;;;;;1.13;1.13;;;;;;;8.75;41.46;98736.22;8383008;28;20255;-71
2023/04/03 00:47:25;;;;;;;1.30;1.30;;;;;;;8.72;42.17;98749.22;8382764;28;20256;-71
2023/04/03 00:51:30;;;;;;;2.03;1.50;;;;;;;8.71;42.29;98750.09;8382534;28;20229;-70
2023/04/03 00:55:33;;;;;;;2.00;1.30;;;;;;;8.76;41.99;98744.84;8382343;28;20240;-71
2023/04/03 00:59:41;;;;;;;1.10;1.10;;;;;;;8.71;41.35;98736.34;8382412;28;20380;-70
2023/04/03 01:03:43;;;;;;;1.97;1.13;;;;;;;8.65;41.43;98724.44;8381818;28;20240;-70
2023/04/03 01:07:48;;;;;;;1.50;1.10;;;;;;;8.57;41.24;98729.78;8382157;28;20248;-70
2023/04/03 01:11:51;;;;;;;1.20;1.10;;;;;;;8.64;41.53;98748.56;8382072;28;20532;-70
2023/04/03 01:15:55;;;;;;;1.23;1.17;;;;;;;8.63;41.32;98746.88;8381413;28;20240;-70
2023/04/03 01:20:19;;;;;;;1.00;0.97;;;;;;;8.59;41.57;98743.50;8381591;28;20283;-70
2023/04/03 01:24:33;;;;;;;1.50;1.40;;;;;;;8.56;42.33;98740.16;8376634;28;20237;-70
2023/04/03 01:28:37;;;;;;;1.50;1.07;;;;;;;8.54;42.46;98737.59;8380302;28;20243;-71
2023/04/03 01:32:41;;;;;;;2.00;1.40;;;;;;;8.33;42.60;98748.41;8381222;28;20225;-70
2023/04/03 01:36:44;;;;;;;2.07;1.13;;;;;;;8.23;42.73;98746.03;8380692;28;20235;-70
2023/04/03 01:40:47;;;;;;;1.47;1.10;;;;;;;7.95;43.13;98748.34;8381063;28;20505;-70
2023/04/03 01:44:49;;;;;;;1.23;1.10;;;;;;;7.91;43.10;98743.31;8380745;28;20248;-70
2023/04/03 01:48:53;;;;;;;1.40;1.30;;;;;;;8.08;43.14;98756.69;8380622;28;20232;-70
2023/04/03 01:52:56;;;;;;;1.27;1.13;;;;;;;7.93;43.40;98752.69;8380670;28;20418;-70
2023/04/03 01:56:59;;;;;;;1.47;1.30;;;;;;;7.67;44.66;98749.81;8379900;28;20237;-70
2023/04/03 02:01:02;;;;;;;1.70;1.30;;;;;;;7.77;43.64;98744.44;8380196;28;20399;-70
2023/04/03 02:05:07;;;;;;;2.10;1.03;;;;;;;7.69;44.23;98742.88;8380261;28;20507;-71
2023/04/03 02:09:10;;;;;;;1.73;1.10;;;;;;;7.66;44.32;98740.38;8380059;28;20233;-70
2023/04/03 02:13:13;;;;;;;1.30;1.20;;;;;;;7.60;44.63;98747.34;8379850;28;20435;-70
2023/04/03 02:17:16;;;;;;;3.17;1.10;;;;;;;7.58;44.67;98743.97;8379736;28;20220;-70
2023/04/03 02:21:20;;;;;;;1.50;1.30;;;;;;;7.76;45.04;98747.88;8379750;28;20412;-70
2023/04/03 02:25:23;;;;;;;3.17;1.20;;;;;;;7.75;45.08;98748.78;8379713;28;20533;-71
2023/04/03 02:29:26;;;;;;;1.87;1.30;;;;;;;7.52;45.31;98725.19;8379538;28;20217;-71
2023/04/03 02:33:29;;;;;;;1.47;1.20;;;;;;;7.52;45.42;98725.19;8379460;28;20232;-70
2023/04/03 02:37:33;;;;;;;1.23;1.13;;;;;;;7.39;46.37;98746.03;8379425;28;20535;-70
2023/04/03 02:41:36;;;;;;;2.83;1.40;;;;;;;7.42;46.33;98751.16;8379276;28;20240;-70
2023/04/03 02:45:39;;;;;;;1.83;1.50;;;;;;;7.49;46.70;98756.19;8379335;28;20236;-70
2023/04/03 02:49:43;;;;;;;2.07;1.47;;;;;;;7.66;46.54;98751.53;8378672;28;20224;-69
2023/04/03 02:53:47;;;;;;;3.60;1.80;;;;;;;7.50;47.00;98747.56;8379018;28;20241;-70
2023/04/03 02:57:52;;;;;;;4.17;1.73;;;;;;;7.52;47.20;98756.09;8378900;28;20237;-70
2023/04/03 03:01:55;;;;;;;2.33;1.43;;;;;;;7.17;47.71;98761.03;8381889;28;20264;-70
2023/04/03 03:06:05;;;;;;;3.83;1.67;;;;;;;7.64;47.52;98758.47;8385437;28;20229;-70
2023/04/03 03:10:10;;;;;;;3.27;1.70;;;;;;;7.51;47.97;98759.56;8385698;28;20416;-70
2023/04/03 03:14:12;;;;;;;3.33;1.50;;;;;;;7.85;47.55;98756.34;8385277;28;20465;-70
2023/04/03 03:18:15;;;;;;;4.40;1.50;;;;;;;7.78;47.77;98758.19;8385388;28;20225;-70
2023/04/03 03:22:18;;;;;;;2.03;1.73;;;;;;;7.64;47.78;98756.72;8385315;28;20225;-70
2023/04/03 03:26:22;;;;;;;3.73;1.60;;;;;;;7.67;48.05;98748.06;8385075;28;20239;-70
2023/04/03 03:30:25;;;;;;;2.90;1.73;;;;;;;7.49;48.67;98749.28;8384758;28;20229;-70
2023/04/03 03:34:28;;;;;;;4.60;1.90;;;;;;;7.76;48.25;98747.03;8384787;28;20221;-70
2023/04/03 03:38:31;;;;;;;3.57;1.90;;;;;;;7.76;47.48;98747.03;8384655;28;20229;-71
2023/04/03 03:42:35;;;;;;;3.20;1.90;;;;;;;7.63;48.45;98752.47;8384723;28;20232;-70
2023/04/03 03:46:38;;;;;;;3.73;2.03;;;;;;;7.54;48.58;98746.63;8384487;28;20225;-71
2023/04/03 03:50:40;;;;;;;3.10;1.70;;;;;;;7.67;48.36;98748.06;8384404;28;20267;-71
2023/04/03 03:54:43;;;;;;;2.03;1.73;;;;;;;7.58;49.25;98748.28;8383990;28;20228;-70
2023/04/03 03:58:47;;;;;;;2.00;1.70;;;;;;;7.68;48.59;98749.78;8384024;28;20225;-71
2023/04/03 04:02:50;;;;;;;2.50;1.70;;;;;;;7.83;48.59;98757.19;8384119;28;20259;-71
2023/04/03 04:06:53;;;;;;;3.37;1.60;;;;;;;7.67;49.09;98752.38;8384019;28;20512;-71
2023/04/03 04:10:55;;;;;;;4.33;1.90;;;;;;;7.56;49.45;98750.03;8383642;28;20233;-71
2023/04/03 04:14:59;;;;;;;3.47;1.70;;;;;;;7.68;49.13;98751.50;8382478;28;20459;-71
2023/04/03 04:19:02;;;;;;;4.03;2.00;;;;;;;7.74;48.97;98738.50;8383440;28;20220;-71
2023/04/03 04:23:09;;;;;;;2.93;1.80;;;;;;;7.57;49.19;98747.41;8383408;28;20225;-70
2023/04/03 04:27:11;;;;;;;3.87;1.93;;;;;;;7.68;49.76;98751.50;8383343;28;20509;-70
2023/04/03 04:31:15;;;;;;;3.57;2.20;;;;;;;7.71;49.24;98754.00;8382761;28;20228;-71
2023/04/03 04:35:18;;;;;;;1.87;1.70;;;;;;;7.46;49.76;98756.22;8383023;28;20583;-71
2023/04/03 04:39:21;;;;;;;4.20;2.40;;;;;;;7.64;49.54;98754.16;8382769;28;20239;-70
2023/04/03 04:43:24;;;;;;;4.23;2.20;;;;;;;7.68;49.59;98760.09;8382884;28;20228;-71
2023/04/03 04:47:29;;;;;;;4.60;2.20;;;;;;;7.48;49.78;98762.19;8382240;28;20543;-70
2023/04/03 04:51:32;;;;;;;4.53;2.90;;;;;;;7.38;50.18;98762.38;8382115;28;20470;-71
2023/04/03 04:55:50;;;;;;;3.27;1.87;;;;;;;7.34;50.02;98755.59;8381859;28;20536;-70
2023/04/03 04:59:52;;;;;;;1.90;1.70;;;;;;;7.16;49.82;98754.19;8382338;28;20229;-70
2023/04/03 05:03:57;;;;;;;3.57;1.60;;;;;;;7.33;49.30;98760.75;8382201;28;20228;-70
2023/04/03 05:08:00;;;;;;;2.57;1.70;;;;;;;6.93;50.11;98741.72;8381906;28;20237;-70
2023/04/03 05:12:03;;;;;;;3.10;1.67;;;;;;;7.26;49.65;98762.63;8382050;28;20229;-71
2023/04/03 05:16:06;;;;;;;2.67;1.63;;;;;;;7.18;49.42;98769.63;8381637;28;20229;-71
2023/04/03 05:20:12;;;;;;;3.13;1.83;;;;;;;7.07;49.69;98771.56;8381622;28;20409;-71
2023/04/03 05:24:17;;;;;;;3.70;1.77;;;;;;;7.06;49.30;98770.69;8380683;28;20428;-71
2023/04/03 05:28:19;;;;;;;4.70;1.67;;;;;;;7.14;49.02;98770.53;8381436;28;20235;-70
2023/04/03 05:32:22;;;;;;;3.27;1.70;;;;;;;7.31;48.78;98785.69;8381097;28;20247;-71
2023/04/03 05:36:26;;;;;;;3.03;1.70;;;;;;;7.36;48.22;98784.75;8380798;28;20225;-71
2023/04/03 05:40:29;;;;;;;3.87;1.70;;;;;;;7.32;48.67;98790.84;8381004;28;20231;-71
2023/04/03 05:44:32;;;;;;;3.00;1.90;;;;;;;7.28;48.15;98786.63;8380909;28;20228;-71
2023/04/03 05:48:35;;;;;;;3.13;1.73;;;;;;;7.41;48.51;98792.41;8380733;28;20520;-70
2023/04/03 05:52:41;;;;;;;5.00;1.67;;;;;;;7.38;48.04;98788.13;8380538;28;20228;-71
2023/04/03 05:56:45;;;;;;;4.83;1.80;;;;;;;7.34;48.76;98798.53;8379819;28;20229;-70
2023/04/03 06:00:48;;;;;;;3.00;1.67;;;;;;;7.36;48.48;98804.50;8379971;28;20236;-70
2023/04/03 06:04:51;;;;;;;4.87;1.70;;;;;;;7.01;48.69;98772.50;8379863;28;20252;-70
2023/04/03 06:08:56;;;;;;;4.33;1.80;;;;;;;7.15;48.94;98800.59;8379365;28;20244;-71
2023/04/03 06:12:59;;;;;;;4.20;1.90;;;;;;;7.27;48.87;98799.53;8379624;28;20608;-71
2023/04/03 06:17:02;;;;;;;4.93;1.83;;;;;;;7.17;48.90;98814.28;8379177;28;20240;-71
2023/04/03 06:21:07;;;;;;;2.57;1.70;;;;;;;7.53;48.50;98822.25;8379243;28;20228;-71
2023/04/03 06:25:12;;;;;;;3.77;1.73;;;;;;;7.19;49.23;98792.78;8379322;28;20240;-71
2023/04/03 06:29:14;;;;;;;2.63;1.50;;;;;;;7.61;48.69;98831.53;8379155;28;20232;-71
2023/04/03 06:33:17;;;;;;;4.30;1.80;;;;;;;7.83;48.39;98836.31;8379199;28;20223;-71
2023/04/03 06:37:22;;;;;;;4.10;1.80;;;;;;;7.72;48.07;98830.50;8378282;28;20229;-71
2023/04/03 06:41:26;;;;;;;2.90;1.63;;;;;;;7.70;47.88;98827.09;8379107;28;20236;-71
2023/04/03 06:45:29;;;;;;;5.23;2.00;;;;;;;7.83;48.45;98833.72;8379060;28;20299;-71
2023/04/03 06:49:32;;;;;;;4.43;2.23;;;;;;;7.71;47.56;98836.50;8378842;28;20228;-71
2023/04/03 06:53:35;;;;;;;6.17;3.00;;;;;;;7.61;47.66;98841.00;8378985;28;20235;-71
2023/04/03 06:57:39;;;;;;;3.90;2.20;;;;;;;7.93;47.49;98850.69;8378835;28;20240;-71
2023/04/03 07:01:42;;;;;;;4.80;2.50;;;;;;;7.96;46.53;98850.66;8378212;28;20236;-71
2023/04/03 07:05:45;;;;;;;3.43;1.90;;;;;;;8.20;45.86;98853.59;8378245;28;20240;-71
2023/04/03 07:09:49;;;;;;;3.60;2.00;;;;;;;7.63;46.33;98855.59;8378713;28;20275;-71
2023/04/03 07:13:53;;;;;;;3.10;2.50;;;;;;;8.10;45.48;98860.69;8378175;28;20229;-72
2023/04/03 07:17:56;;;;;;;6.23;3.10;;;;;;;8.13;45.49;98870.97;8378393;28;20229;-71
2023/04/03 07:21:59;;;;;;;5.67;3.53;;;;;;;8.38;45.50;98883.38;8378415;28;20309;-72
2023/04/03 07:26:02;;;;;;;3.40;1.90;;;;;;;8.33;45.81;98883.44;8378301;28;20236;-71
2023/04/03 07:30:09;;;;;;;4.37;2.90;;;;;;;8.20;45.35;98888.00;8378059;28;20225;-71
2023/04/03 07:34:11;;;;;;;5.03;3.40;;;;;;;8.68;43.94;98878.44;8378374;28;20251;-71
2023/04/03 07:38:14;;;;;;;3.87;2.37;;;;;;;8.48;43.83;98886.63;8378201;28;20240;-71
2023/04/03 07:42:17;;;;;;;3.97;2.43;;;;;;;9.40;42.99;98887.09;8378092;28;20231;-71
2023/04/03 07:46:21;;;;;;;3.87;2.60;;;;;;;8.79;42.53;98897.97;8377794;28;20228;-71
2023/04/03 07:50:25;;;;;;;15.83;10.97;;;;;;;8.58;43.36;98881.22;8384310;28;20220;-71
2023/04/03 07:54:28;;;;;;;15.17;11.13;;;;;;;8.48;43.41;98896.97;8384042;28;20225;-71
2023/04/03 07:58:31;;;;;;;7.90;4.73;;;;;;;9.87;41.41;98900.53;8384028;28;20229;-71
2023/04/03 08:02:36;;;;;;;7.00;4.00;;;;;;;9.56;40.88;98897.91;8383910;28;20245;-72
2023/04/03 08:06:38;;;;;;;9.17;4.17;;;;;;;8.69;42.48;98901.66;8383686;28;20412;-71
2023/04/03 08:10:50;;;;;;;22.90;11.60;;;;;;;8.08;43.24;98890.00;8383386;28;20222;-71
2023/04/03 08:14:53;;;;;;;8.13;4.07;;;;;;;9.07;40.44;98893.94;8383691;28;20233;-71
2023/04/03 08:18:57;;;;;;;5.23;3.70;;;;;;;9.06;41.99;98874.97;8383158;28;20255;-71
2023/04/03 08:23:00;;;;;;;5.93;3.80;;;;;;;9.04;40.35;98909.50;8382991;28;20229;-71
2023/04/03 08:27:03;;;;;;;5.33;2.97;;;;;;;9.96;37.90;98910.66;8383221;28;20383;-71
2023/04/03 08:31:07;;;;;;;4.17;2.10;;;;;;;11.07;35.42;98902.28;8382850;28;20221;-71
2023/04/03 08:35:12;;;;;;;3.37;1.80;;;;;;;11.80;34.08;98902.50;8383037;28;20429;-70
2023/04/03 08:39:15;;;;;;;2.27;1.70;;;;;;;12.02;33.42;98905.25;8383213;28;20233;-72
2023/04/03 08:43:31;;;;;;;2.57;1.80;;;;;;;11.67;35.04;98905.53;8383497;28;20273;-72
2023/04/03 08:47:39;;;;;;;3.23;1.80;;;;;;;12.51;33.53;98911.28;8383185;28;20563;-71
2023/04/03 08:51:47;;;;;;;4.07;1.90;;;;;;;12.76;30.50;98911.19;8382539;28;20497;-70
2023/04/03 08:55:51;;;;;;;3.00;1.60;;;;;;;12.51;31.12;98913.88;8382803;28;20249;-72
2023/04/03 08:59:53;;;;;;;2.80;2.10;;;;;;;11.41;31.19;98910.75;8382255;28;20448;-72
2023/04/03 09:03:56;;;;;;;2.77;1.67;;;;;;;11.85;30.82;98922.22;8382697;28;20229;-72
2023/04/03 09:08:02;;;;;;;2.93;1.40;;;;;;;12.91;31.01;98931.38;8382790;28;20249;-72
2023/04/03 09:12:11;;;;;;;3.27;1.90;;;;;;;13.46;28.64;98919.72;8382611;28;20398;-72
2023/04/03 09:16:21;;;;;;;2.40;1.60;;;;;;;12.60;28.98;98934.28;8382209;28;20234;-72
2023/04/03 09:20:31;;;;;;;3.57;1.57;;;;;;;12.15;29.75;98939.41;8382088;28;20390;-72
2023/04/03 09:24:36;;;;;;;2.10;1.67;;;;;;;13.83;28.74;98933.81;8381918;28;20235;-72
2023/04/03 09:28:41;;;;;;;2.03;1.30;;;;;;;14.21;25.76;98926.97;8381892;28;20231;-72
2023/04/03 09:32:53;;;;;;;2.33;1.67;;;;;;;13.55;26.86;98934.97;8381386;28;20315;-72
2023/04/03 09:36:57;;;;;;;1.80;1.30;;;;;;;12.21;28.95;98937.44;8381554;28;20250;-73
2023/04/03 09:41:07;;;;;;;2.20;1.40;;;;;;;13.31;26.47;98926.41;8381585;28;20285;-72
2023/04/03 09:45:22;;;;;;;2.40;1.80;;;;;;;13.82;28.45;98926.91;8381352;28;20449;-72
2023/04/03 09:49:25;;;;;;;2.07;1.40;;;;;;;13.65;26.92;98927.63;8380938;28;20217;-72
2023/04/03 09:53:37;;;;;;;2.30;1.70;;;;;;;13.65;27.02;98930.22;8383111;28;20233;-72
2023/04/03 09:57:41;;;;;;;2.50;1.57;;;;;;;13.25;28.70;98939.63;8380951;28;20247;-72
2023/04/03 10:01:58;;;;;;;2.60;1.50;;;;;;;14.85;26.80;98925.03;8380441;28;20239;-72
2023/04/03 10:06:02;;;;;;;2.90;1.87;;;;;;;14.33;26.84;98929.94;8380767;28;20302;-73
2023/04/03 10:10:19;;;;;;;2.63;1.70;;;;;;;13.20;27.20;98921.59;8380905;28;20231;-72
2023/04/03 10:14:24;;;;;;;3.30;1.80;;;;;;;13.37;28.38;98922.72;8380565;28;20234;-72
2023/04/03 10:18:32;;;;;;;2.93;1.70;;;;;;;13.64;27.54;98918.97;8380413;28;20270;-72
2023/04/03 10:22:45;;;;;;;3.17;1.50;;;;;;;13.10;28.46;98920.28;8380469;28;20585;-72
2023/04/03 10:26:55;;;;;;;2.40;1.57;;;;;;;14.72;25.37;98916.91;8379641;28;20255;-71
2023/04/03 10:31:06;;;;;;;2.53;1.80;;;;;;;13.36;27.83;98916.66;8379341;28;20228;-71
2023/04/03 10:35:13;;;;;;;2.10;1.60;;;;;;;15.39;25.78;98899.78;8379194;28;20231;-72
2023/04/03 10:39:26;;;;;;;2.10;1.50;;;;;;;15.35;25.29;98907.88;8379183;28;20239;-72
2023/04/03 10:43:35;;;;;;;1.70;1.60;;;;;;;15.86;24.75;98905.34;8378928;28;20336;-72
2023/04/03 10:47:45;;;;;;;2.47;1.67;;;;;;;13.81;25.57;98909.63;8378763;28;20243;-73
2023/04/03 10:51:49;;;;;;;3.07;1.83;;;;;;;11.96;27.09;98895.09;8378636;28;20350;-72
2023/04/03 10:55:55;;;;;;;3.77;1.10;;;;;;;16.10;53.36;98890.19;8378784;28;20240;-73
2023/04/03 11:00:00;;;;;;;2.07;1.43;;;;;;;15.99;36.71;98902.06;8378489;28;20259;-73
2023/04/03 11:04:06;;;;;;;1.50;1.40;;;;;;;14.45;31.56;98895.53;8378731;28;20497;-72
2023/04/03 11:08:14;;;;;;;1.83;1.50;;;;;;;14.58;26.04;98882.78;8378899;28;20224;-73
2023/04/03 11:12:20;;;;;;;1.57;1.43;;;;;;;14.91;25.65;98883.00;8378800;28;20295;-71
2023/04/03 11:16:26;;;;;;;2.27;1.50;;;;;;;13.30;25.78;98880.47;8378389;28;20228;-71
2023/04/03 11:20:32;;;;;;;2.57;1.80;;;;;;;14.39;25.42;98870.59;8378579;28;20225;-71
2023/04/03 11:24:38;;;;;;;2.50;1.70;;;;;;;13.83;24.83;98861.75;8384209;28;20240;-72
2023/04/03 11:28:41;;;;;;;2.90;1.70;;;;;;;13.81;24.85;98863.59;8385028;28;20243;-72
2023/04/03 11:33:03;;;;;;;2.10;1.77;;;;;;;14.81;24.41;98863.47;8384452;28;20228;-72
2023/04/03 11:37:15;;;;;;;1.90;1.50;;;;;;;14.85;23.99;98860.66;8384689;28;20235;-72
2023/04/03 11:41:27;;;;;;;1.90;1.60;;;;;;;13.93;24.81;98854.41;8384677;28;20283;-72
2023/04/03 11:45:37;;;;;;;2.93;1.90;;;;;;;14.95;25.26;98863.66;8384232;28;20288;-72
2023/04/03 11:49:59;;;;;;;2.57;1.80;;;;;;;14.97;25.18;98851.41;8384883;28;20292;-73
2023/04/03 11:54:36;;;;;;;1.90;1.33;;;;;;;16.49;23.99;98858.47;8384145;28;20221;-70
2023/04/03 11:59:20;;;;;;;1.87;1.50;;;;;;;14.25;24.36;98850.34;8383894;28;20233;-70
2023/04/03 12:04:05;;;;;;;2.50;1.37;;;;;;;16.16;22.54;98846.31;8384134;28;20225;-71
2023/04/03 12:08:18;;;;;;;2.10;1.50;;;;;;;14.43;25.33;98837.41;8383702;28;20232;-70
2023/04/03 12:12:31;;;;;;;1.40;1.30;;;;;;;16.03;23.81;98838.25;8384447;28;20221;-71
2023/04/03 12:16:43;;;;;;;1.27;1.17;;;;;;;16.01;23.42;98834.03;8383706;28;20250;-71
2023/04/03 12:20:55;;;;;;;2.23;1.40;;;;;;;15.15;23.76;98828.78;8383455;28;20294;-71
2023/04/03 12:24:58;;;;;;;2.30;1.30;;;;;;;15.83;24.21;98828.00;8382905;28;20251;-71
2023/04/03 12:29:04;;;;;;;2.93;1.37;;;;;;;15.82;24.85;98829.78;8382968;28;20234;-71
2023/04/03 12:33:24;;;;;;;1.90;1.50;;;;;;;15.69;24.18;98826.09;8382025;28;20229;-71
2023/04/03 12:37:43;;;;;;;1.40;1.30;;;;;;;13.83;23.96;98812.28;8382940;28;20296;-72
2023/04/03 12:41:53;;;;;;;2.60;1.40;;;;;;;16.37;23.12;98807.72;8382776;28;20258;-70
2023/04/03 12:46:00;;;;;;;2.20;1.37;;;;;;;14.27;23.42;98811.22;8383258;28;20234;-70
2023/04/03 12:50:14;;;;;;;3.10;1.57;;;;;;;13.71;23.50;98794.63;8382506;28;20311;-71
2023/04/03 12:54:20;;;;;;;2.83;1.70;;;;;;;15.17;23.17;98803.47;8382513;28;20225;-72
2023/04/03 12:58:24;;;;;;;1.93;1.43;;;;;;;13.97;25.41;98811.69;8382223;28;20235;-72
2023/04/03 13:02:29;;;;;;;2.27;1.30;;;;;;;13.86;27.30;98800.94;8381550;28;20221;-71
2023/04/03 13:06:37;;;;;;;2.00;1.40;;;;;;;15.40;24.06;98799.72;8382072;28;20430;-71
2023/04/03 13:10:49;;;;;;;2.50;1.90;;;;;;;14.09;24.25;98797.28;8382192;28;20278;-71
2023/04/03 13:14:56;;;;;;;1.50;1.40;;;;;;;14.73;23.11;98803.03;8381611;28;20232;-71
2023/04/03 13:18:59;;;;;;;2.80;1.43;;;;;;;15.20;24.01;98799.88;8381739;28;20246;-71
2023/04/03 13:23:08;;;;;;;2.67;1.23;;;;;;;16.22;22.96;98798.94;8381275;28;20225;-71
2023/04/03 13:27:12;;;;;;;2.37;1.30;;;;;;;15.58;23.37;98795.31;8381123;28;20225;-70
2023/04/03 13:31:32;;;;;;;1.77;1.40;;;;;;;13.55;25.16;98791.81;8381267;28;20221;-71
2023/04/03 13:35:37;;;;;;;2.47;1.67;;;;;;;14.13;25.48;98798.00;8381360;28;20229;-70
2023/04/03 13:39:42;;;;;;;1.47;1.30;;;;;;;15.18;24.45;98786.06;8381093;28;20425;-71
2023/04/03 13:43:45;;;;;;;2.20;1.40;;;;;;;15.36;23.90;98794.72;8380509;28;20567;-70
2023/04/03 13:47:49;;;;;;;2.73;1.40;;;;;;;14.95;24.60;98763.72;8380378;28;20233;-70
2023/04/03 13:51:52;;;;;;;1.63;1.40;;;;;;;15.27;24.54;98789.94;8380651;28;20311;-71
2023/04/03 13:56:20;;;;;;;3.43;1.10;;;;;;;15.65;24.29;98782.78;8380408;28;20290;-71
2023/04/03 14:00:30;;;;;;;2.00;1.53;;;;;;;13.13;24.39;98771.91;8380601;28;20532;-71
2023/04/03 14:04:47;;;;;;;1.60;1.33;;;;;;;15.50;23.85;98783.56;8380489;28;20233;-71
2023/04/03 14:08:50;;;;;;;1.60;1.30;;;;;;;15.88;23.50;98775.53;8379651;28;20225;-71
2023/04/03 14:12:55;;;;;;;2.67;1.50;;;;;;;15.31;23.51;98781.06;8379953;28;20243;-71
2023/04/03 14:17:01;;;;;;;1.97;1.30;;;;;;;14.73;24.26;98777.78;8379845;28;20240;-71
2023/04/03 14:21:04;;;;;;;1.53;1.27;;;;;;;13.89;25.44;98772.97;8380067;28;20239;-71
2023/04/03 14:25:07;;;;;;;2.93;1.60;;;;;;;14.72;23.84;98780.50;8379741;28;20236;-71
2023/04/03 14:29:13;;;;;;;2.53;1.50;;;;;;;14.61;25.24;98775.78;8379774;28;20233;-71
2023/04/03 14:33:18;;;;;;;1.57;1.37;;;;;;;15.09;23.94;98765.63;8379510;28;20405;-71
2023/04/03 14:37:23;;;;;;;1.30;1.20;;;;;;;13.77;25.28;98760.50;8379586;28;20233;-72
2023/04/03 14:41:27;;;;;;;2.67;1.63;;;;;;;14.56;24.36;98756.88;8379439;28;20236;-71
2023/04/03 14:45:31;;;;;;;2.67;1.47;;;;;;;14.94;24.59;98757.66;8379063;28;20236;-71
2023/04/03 14:49:34;;;;;;;1.43;1.33;;;;;;;14.98;24.16;98761.81;8379368;28;20244;-71
2023/04/03 14:53:37;;;;;;;1.67;1.40;;;;;;;13.88;24.93;98762.66;8379436;28;20233;-71
2023/04/03 14:57:41;;;;;;;2.47;1.33;;;;;;;13.20;26.00;98756.91;8378483;28;20400;-71
2023/04/03 15:01:45;;;;;;;1.73;1.30;;;;;;;12.54;27.52;98755.25;8378888;28;20441;-70
2023/04/03 15:05:49;;;;;;;1.50;1.40;;;;;;;13.24;26.23;98758.47;8378859;28;20230;-70
2023/04/03 15:09:52;;;;;;;1.97;1.30;;;;;;;13.93;25.18;98750.25;8378635;28;20326;-71
2023/04/03 15:13:55;;;;;;;2.17;1.20;;;;;;;13.62;25.50;98749.03;8378953;28;20534;-71
2023/04/03 15:18:00;;;;;;;2.20;1.40;;;;;;;13.30;26.06;98735.66;8378787;28;20237;-70
2023/04/03 15:22:03;;;;;;;1.83;1.30;;;;;;;13.27;25.55;98753.16;8378582;28;20561;-70
2023/04/03 15:26:06;;;;;;;2.03;1.20;;;;;;;12.28;26.55;98743.28;8378371;28;20229;-70
2023/04/03 15:30:13;;;;;;;3.10;1.43;;;;;;;12.16;27.08;98761.94;8378531;28;20228;-70
2023/04/03 15:34:17;;;;;;;2.70;1.60;;;;;;;11.76;27.40;98761.63;8378384;28;20232;-70
2023/04/03 15:38:20;;;;;;;2.77;1.33;;;;;;;12.04;27.30;98758.91;8378507;28;20579;-71
2023/04/03 15:42:22;;;;;;;2.33;1.47;;;;;;;12.37;27.64;98755.91;8378548;28;20229;-70
2023/04/03 15:46:25;;;;;;;2.00;1.33;;;;;;;12.07;26.96;98766.59;8378415;28;20353;-70
2023/04/03 15:50:30;;;;;;;2.23;1.50;;;;;;;11.89;27.67;98773.28;8378102;28;20232;-71
2023/04/03 15:54:32;;;;;;;5.07;1.50;;;;;;;11.96;27.54;98771.31;8378191;28;20509;-70
2023/04/03 15:58:35;;;;;;;1.70;1.23;;;;;;;11.63;27.01;98765.56;8378014;28;20232;-71
2023/04/03 16:02:38;;;;;;;2.43;1.20;;;;;;;11.33;27.64;98758.00;8378130;28;20233;-71
2023/04/03 16:06:43;;;;;;;1.63;0.90;;;;;;;11.12;27.96;98770.78;8378466;28;20275;-70
2023/04/03 16:10:46;;;;;;;1.83;1.40;;;;;;;11.10;28.03;98766.53;8382681;28;20513;-70
2023/04/03 16:14:51;;;;;;;1.60;1.30;;;;;;;10.47;28.04;98759.09;8383622;28;20301;-70
2023/04/03 16:18:54;;;;;;;2.63;1.50;;;;;;;11.34;28.00;98768.28;8383534;28;20252;-71
2023/04/03 16:22:59;;;;;;;2.67;1.20;;;;;;;11.35;28.64;98770.00;8383582;28;20231;-72
2023/04/03 16:27:02;;;;;;;3.33;1.50;;;;;;;10.68;28.36;98777.41;8383096;28;20224;-72
2023/04/03 16:31:06;;;;;;;1.97;1.30;;;;;;;9.86;28.81;98776.41;8383703;28;20236;-72
2023/04/03 16:35:13;;;;;;;2.00;1.30;;;;;;;10.43;28.59;98779.94;8383607;28;20303;-72
2023/04/03 16:39:17;;;;;;;2.77;1.20;;;;;;;10.64;28.54;98788.75;8382107;28;20237;-72
2023/04/03 16:43:19;;;;;;;2.87;1.37;;;;;;;9.73;29.47;98791.44;8383383;28;20230;-72
2023/04/03 16:47:22;;;;;;;1.67;1.30;;;;;;;10.16;28.71;98791.03;8382177;28;20225;-72
2023/04/03 16:51:26;;;;;;;2.33;1.30;;;;;;;10.57;29.55;98794.16;8382793;28;20242;-70
2023/04/03 16:55:32;;;;;;;2.30;1.23;;;;;;;10.02;29.16;98789.75;8382163;28;20415;-71
2023/04/03 16:59:35;;;;;;;1.57;1.40;;;;;;;10.00;29.97;98797.56;8380947;28;20307;-71
2023/04/03 17:03:38;;;;;;;2.60;1.60;;;;;;;9.76;29.50;98793.91;8381434;28;20234;-71
2023/04/03 17:07:41;;;;;;;2.70;1.60;;;;;;;9.74;29.79;98799.13;8380757;28;20427;-70
2023/04/03 17:11:49;;;;;;;1.67;1.40;;;;;;;9.78;29.76;98805.91;8381228;28;20252;-71
2023/04/03 17:15:52;;;;;;;1.70;1.00;;;;;;;9.95;29.86;98805.44;8381931;28;20230;-71
2023/04/03 17:19:56;;;;;;;2.47;1.20;;;;;;;9.69;30.31;98807.91;8380698;28;20237;-70
2023/04/03 17:24:01;;;;;;;1.87;1.20;;;;;;;9.56;29.57;98813.41;8381785;28;20470;-70
2023/04/03 17:28:05;;;;;;;1.90;1.10;;;;;;;9.53;30.17;98813.50;8382069;28;20447;-70
2023/04/03 17:32:08;;;;;;;3.80;1.40;;;;;;;9.48;30.57;98817.94;8381893;28;20230;-71
2023/04/03 17:36:11;;;;;;;1.03;0.90;;;;;;;9.20;30.32;98816.06;8381242;28;20292;-71
2023/04/03 17:40:17;;;;;;;1.90;1.57;;;;;;;9.27;30.54;98821.06;8381237;28;20231;-71
2023/04/03 17:44:21;;;;;;;1.60;1.10;;;;;;;9.42;30.75;98827.59;8381055;28;20221;-71
2023/04/03 17:48:24;;;;;;;3.00;1.47;;;;;;;9.04;31.18;98832.81;8381077;28;20253;-71
2023/04/03 17:52:28;;;;;;;1.87;1.37;;;;;;;9.37;30.60;98836.31;8380732;28;20237;-72
2023/04/03 17:56:32;;;;;;;3.40;2.10;;;;;;;9.12;31.42;98838.69;8380731;28;20233;-70
2023/04/03 18:00:37;;;;;;;4.87;4.13;;;;;;;9.18;31.14;98845.44;8380591;28;20239;-70
2023/04/03 18:04:40;;;;;;;1.80;1.70;;;;;;;9.25;31.30;98849.53;8380085;28;20424;-72
2023/04/03 18:08:47;;;;;;;1.73;1.33;;;;;;;8.56;31.26;98844.25;8380104;28;20225;-71
2023/04/03 18:12:51;;;;;;;1.83;1.40;;;;;;;8.85;31.43;98840.16;8379603;28;20559;-72
2023/04/03 18:16:56;;;;;;;2.30;1.40;;;;;;;8.48;31.35;98853.06;8379100;28;20562;-72
2023/04/03 18:21:01;;;;;;;2.00;1.17;;;;;;;8.74;31.43;98861.09;8380037;28;20230;-72
2023/04/03 18:25:05;;;;;;;3.07;1.97;;;;;;;8.64;31.02;98867.31;8379025;28;20236;-72
2023/04/03 18:29:11;;;;;;;3.43;2.07;;;;;;;8.68;31.51;98869.00;8379783;28;20516;-72
2023/04/03 18:33:15;;;;;;;1.70;1.40;;;;;;;9.04;31.28;98866.41;8378609;28;20537;-72
2023/04/03 18:37:19;;;;;;;4.97;2.17;;;;;;;11.65;77.00;98876.19;8379263;28;20221;-72
2023/04/03 18:41:28;;;;;;;1.67;1.20;;;;;;;11.18;52.60;98860.47;8379855;28;20560;-71
2023/04/03 18:45:31;;;;;;;3.20;1.33;;;;;;;12.88;37.81;98879.50;8377694;28;20229;-72
2023/04/03 18:49:38;;;;;;;1.80;1.30;;;;;;;13.13;32.23;98875.94;8379355;28;20233;-72
2023/04/03 18:53:41;;;;;;;3.63;1.40;;;;;;;11.61;28.39;98872.00;8379277;28;20224;-70
2023/04/03 18:57:44;;;;;;;2.70;2.00;;;;;;;9.78;29.95;98759.34;8378811;28;20377;-69
2023/04/03 19:01:47;;;;;;;2.50;1.70;;;;;;;10.77;29.10;98885.94;8378676;28;20741;-70
2023/04/03 19:05:52;;;;;;;2.40;1.37;;;;;;;9.67;30.45;98880.38;8379561;28;20319;-70
2023/04/03 19:09:57;;;;;;;2.30;1.80;;;;;;;9.03;31.87;98884.56;8378578;28;20228;-70
2023/04/03 19:14:00;;;;;;;1.67;1.30;;;;;;;9.24;31.00;98890.94;8378992;28;20516;-70
2023/04/03 19:18:16;;;;;;;3.03;1.43;;;;;;;9.12;31.19;98881.72;8379074;28;20226;-70
2023/04/03 19:22:20;;;;;;;2.40;1.87;;;;;;;8.57;31.92;98894.19;8378805;28;20243;-70
2023/04/03 19:26:23;;;;;;;2.47;1.30;;;;;;;8.48;31.64;98877.16;8378923;28;20225;-70